sensor_id;sensor_type;location;lat;lon;timestamp;P1;durP1;ratioP1;P2;durP2;ratioP2
66669;SDS011;53568;52.164;4.472;2023-03-01T00:00:15;19.93;;;19.91;;
66669;SDS011;53568;52.164;4.472;2023-03-01T00:02:40;20.53;;;20.46;;
66669;SDS011;53568;52.164;4.472;2023-03-01T00:05:06;21.09;;;20.82;;
66669;SDS011;53568;52.164;4.472;2023-03-01T00:07:32;20.79;;;20.49;;
66669;SDS011;53568;52.164;4.472;2023-03-01T00:09:58;21.13;;;21.02;;
66669;SDS011;53568;52.164;4.472;2023-03-01T00:12:23;21.05;;;20.97;;
66669;SDS011;53568;52.164;4.472;2023-03-01T00:14:49;21.66;;;21.64;;
66669;SDS011;53568;52.164;4.472;2023-03-01T00:17:14;21.56;;;21.52;;
66669;SDS011;53568;52.164;4.472;2023-03-01T00:19:40;21.80;;;21.49;;
66669;SDS011;53568;52.164;4.472;2023-03-01T00:22:06;21.93;;;21.60;;
66669;SDS011;53568;52.164;4.472;2023-03-01T00:24:31;21.77;;;21.59;;
66669;SDS011;53568;52.164;4.472;2023-03-01T00:26:56;21.70;;;21.67;;
66669;SDS011;53568;52.164;4.472;2023-03-01T00:29:23;22.30;;;22.11;;
66669;SDS011;53568;52.164;4.472;2023-03-01T00:31:49;23.02;;;22.88;;
66669;SDS011;53568;52.164;4.472;2023-03-01T00:34:15;22.76;;;22.56;;
66669;SDS011;53568;52.164;4.472;2023-03-01T00:36:41;22.96;;;22.58;;
66669;SDS011;53568;52.164;4.472;2023-03-01T00:39:09;23.62;;;23.23;;
66669;SDS011;53568;52.164;4.472;2023-03-01T00:41:37;23.32;;;22.92;;
66669;SDS011;53568;52.164;4.472;2023-03-01T00:44:03;23.04;;;22.90;;
66669;SDS011;53568;52.164;4.472;2023-03-01T00:46:28;24.17;;;23.66;;
66669;SDS011;53568;52.164;4.472;2023-03-01T00:48:55;23.60;;;23.37;;
66669;SDS011;53568;52.164;4.472;2023-03-01T00:51:25;24.09;;;23.51;;
66669;SDS011;53568;52.164;4.472;2023-03-01T00:53:54;24.59;;;24.05;;
66669;SDS011;53568;52.164;4.472;2023-03-01T00:56:21;25.34;;;24.84;;
66669;SDS011;53568;52.164;4.472;2023-03-01T00:58:48;26.18;;;25.54;;
66669;SDS011;53568;52.164;4.472;2023-03-01T01:01:18;25.57;;;25.16;;
66669;SDS011;53568;52.164;4.472;2023-03-01T01:03:55;26.82;;;26.15;;
66669;SDS011;53568;52.164;4.472;2023-03-01T01:06:24;27.24;;;26.50;;
66669;SDS011;53568;52.164;4.472;2023-03-01T01:08:53;27.01;;;26.56;;
66669;SDS011;53568;52.164;4.472;2023-03-01T01:11:20;27.48;;;26.69;;
66669;SDS011;53568;52.164;4.472;2023-03-01T01:13:48;27.45;;;26.76;;
66669;SDS011;53568;52.164;4.472;2023-03-01T01:16:14;28.01;;;27.33;;
66669;SDS011;53568;52.164;4.472;2023-03-01T01:18:42;27.72;;;27.19;;
66669;SDS011;53568;52.164;4.472;2023-03-01T01:21:10;28.33;;;27.53;;
66669;SDS011;53568;52.164;4.472;2023-03-01T01:23:38;28.69;;;28.09;;
66669;SDS011;53568;52.164;4.472;2023-03-01T01:26:06;28.97;;;28.59;;
66669;SDS011;53568;52.164;4.472;2023-03-01T01:28:32;30.75;;;29.88;;
66669;SDS011;53568;52.164;4.472;2023-03-01T01:30:59;31.06;;;30.20;;
66669;SDS011;53568;52.164;4.472;2023-03-01T01:33:24;32.00;;;31.11;;
66669;SDS011;53568;52.164;4.472;2023-03-01T01:35:50;32.31;;;31.16;;
66669;SDS011;53568;52.164;4.472;2023-03-01T01:38:15;31.26;;;30.38;;
66669;SDS011;53568;52.164;4.472;2023-03-01T01:40:44;33.12;;;32.17;;
66669;SDS011;53568;52.164;4.472;2023-03-01T01:43:14;33.14;;;32.16;;
66669;SDS011;53568;52.164;4.472;2023-03-01T01:45:48;32.25;;;31.34;;
66669;SDS011;53568;52.164;4.472;2023-03-01T01:48:21;31.77;;;30.89;;
66669;SDS011;53568;52.164;4.472;2023-03-01T01:50:54;32.08;;;31.19;;
66669;SDS011;53568;52.164;4.472;2023-03-01T01:53:25;32.58;;;31.71;;
66669;SDS011;53568;52.164;4.472;2023-03-01T01:55:53;32.46;;;31.51;;
66669;SDS011;53568;52.164;4.472;2023-03-01T01:58:23;34.02;;;32.93;;
66669;SDS011;53568;52.164;4.472;2023-03-01T02:00:54;34.46;;;33.55;;
66669;SDS011;53568;52.164;4.472;2023-03-01T02:03:22;35.27;;;34.11;;
66669;SDS011;53568;52.164;4.472;2023-03-01T02:06:37;35.06;;;33.88;;
66669;SDS011;53568;52.164;4.472;2023-03-01T02:08:47;34.99;;;34.05;;
66669;SDS011;53568;52.164;4.472;2023-03-01T02:11:15;34.95;;;33.61;;
66669;SDS011;53568;52.164;4.472;2023-03-01T02:13:43;35.25;;;34.27;;
66669;SDS011;53568;52.164;4.472;2023-03-01T02:16:13;36.10;;;35.01;;
66669;SDS011;53568;52.164;4.472;2023-03-01T02:18:41;36.32;;;35.14;;
66669;SDS011;53568;52.164;4.472;2023-03-01T02:23:40;37.50;;;35.86;;
66669;SDS011;53568;52.164;4.472;2023-03-01T02:26:07;37.76;;;36.21;;
66669;SDS011;53568;52.164;4.472;2023-03-01T02:28:40;37.72;;;36.53;;
66669;SDS011;53568;52.164;4.472;2023-03-01T02:31:09;36.30;;;35.39;;
66669;SDS011;53568;52.164;4.472;2023-03-01T02:33:57;37.55;;;36.23;;
66669;SDS011;53568;52.164;4.472;2023-03-01T02:36:24;37.13;;;35.95;;
66669;SDS011;53568;52.164;4.472;2023-03-01T02:38:58;37.34;;;36.14;;
66669;SDS011;53568;52.164;4.472;2023-03-01T02:41:26;37.53;;;36.36;;
66669;SDS011;53568;52.164;4.472;2023-03-01T02:43:57;38.31;;;37.26;;
66669;SDS011;53568;52.164;4.472;2023-03-01T02:46:24;39.26;;;37.83;;
66669;SDS011;53568;52.164;4.472;2023-03-01T02:48:55;38.93;;;37.64;;
66669;SDS011;53568;52.164;4.472;2023-03-01T02:54:28;40.17;;;38.93;;
66669;SDS011;53568;52.164;4.472;2023-03-01T02:56:58;39.69;;;38.47;;
66669;SDS011;53568;52.164;4.472;2023-03-01T02:59:25;40.20;;;38.93;;
66669;SDS011;53568;52.164;4.472;2023-03-01T03:01:55;40.23;;;38.80;;
66669;SDS011;53568;52.164;4.472;2023-03-01T03:04:21;40.73;;;39.07;;
66669;SDS011;53568;52.164;4.472;2023-03-01T03:06:47;40.16;;;38.75;;
66669;SDS011;53568;52.164;4.472;2023-03-01T03:09:15;39.48;;;38.17;;
66669;SDS011;53568;52.164;4.472;2023-03-01T03:11:42;40.50;;;38.80;;
66669;SDS011;53568;52.164;4.472;2023-03-01T03:14:12;38.78;;;37.65;;
66669;SDS011;53568;52.164;4.472;2023-03-01T03:16:43;39.11;;;37.84;;
66669;SDS011;53568;52.164;4.472;2023-03-01T03:19:11;39.52;;;37.85;;
66669;SDS011;53568;52.164;4.472;2023-03-01T03:21:37;39.36;;;37.91;;
66669;SDS011;53568;52.164;4.472;2023-03-01T03:24:03;39.06;;;37.61;;
66669;SDS011;53568;52.164;4.472;2023-03-01T03:26:30;39.24;;;37.65;;
66669;SDS011;53568;52.164;4.472;2023-03-01T03:28:56;38.88;;;37.68;;
66669;SDS011;53568;52.164;4.472;2023-03-01T03:31:22;38.71;;;37.47;;
66669;SDS011;53568;52.164;4.472;2023-03-01T03:33:48;39.30;;;37.76;;
66669;SDS011;53568;52.164;4.472;2023-03-01T03:36:16;39.17;;;37.63;;
66669;SDS011;53568;52.164;4.472;2023-03-01T03:38:46;39.99;;;38.62;;
66669;SDS011;53568;52.164;4.472;2023-03-01T03:41:12;40.16;;;38.92;;
66669;SDS011;53568;52.164;4.472;2023-03-01T03:43:38;40.30;;;38.89;;
66669;SDS011;53568;52.164;4.472;2023-03-01T03:46:06;41.19;;;39.85;;
66669;SDS011;53568;52.164;4.472;2023-03-01T03:48:36;42.31;;;40.51;;
66669;SDS011;53568;52.164;4.472;2023-03-01T03:51:04;43.13;;;41.41;;
66669;SDS011;53568;52.164;4.472;2023-03-01T03:53:33;42.73;;;41.24;;
66669;SDS011;53568;52.164;4.472;2023-03-01T03:55:58;43.08;;;41.50;;
66669;SDS011;53568;52.164;4.472;2023-03-01T03:58:25;43.72;;;41.93;;
66669;SDS011;53568;52.164;4.472;2023-03-01T04:00:52;44.25;;;42.30;;
66669;SDS011;53568;52.164;4.472;2023-03-01T04:03:24;45.06;;;43.20;;
66669;SDS011;53568;52.164;4.472;2023-03-01T04:05:51;43.96;;;42.25;;
66669;SDS011;53568;52.164;4.472;2023-03-01T04:08:17;43.89;;;42.02;;
66669;SDS011;53568;52.164;4.472;2023-03-01T04:10:46;44.61;;;42.93;;
66669;SDS011;53568;52.164;4.472;2023-03-01T04:13:15;45.86;;;43.92;;
66669;SDS011;53568;52.164;4.472;2023-03-01T04:15:45;46.83;;;44.61;;
66669;SDS011;53568;52.164;4.472;2023-03-01T04:18:12;46.08;;;44.37;;
66669;SDS011;53568;52.164;4.472;2023-03-01T04:20:39;46.95;;;44.56;;
66669;SDS011;53568;52.164;4.472;2023-03-01T04:23:07;46.47;;;44.23;;
66669;SDS011;53568;52.164;4.472;2023-03-01T04:25:57;44.72;;;42.75;;
66669;SDS011;53568;52.164;4.472;2023-03-01T04:30:54;44.42;;;42.61;;
66669;SDS011;53568;52.164;4.472;2023-03-01T04:33:22;43.94;;;42.33;;
66669;SDS011;53568;52.164;4.472;2023-03-01T04:35:49;44.94;;;42.76;;
66669;SDS011;53568;52.164;4.472;2023-03-01T04:38:16;44.55;;;42.56;;
66669;SDS011;53568;52.164;4.472;2023-03-01T04:40:42;44.83;;;43.05;;
66669;SDS011;53568;52.164;4.472;2023-03-01T04:43:08;44.80;;;43.19;;
66669;SDS011;53568;52.164;4.472;2023-03-01T04:45:35;46.62;;;44.43;;
66669;SDS011;53568;52.164;4.472;2023-03-01T04:48:01;45.41;;;43.50;;
66669;SDS011;53568;52.164;4.472;2023-03-01T04:50:27;46.28;;;44.48;;
66669;SDS011;53568;52.164;4.472;2023-03-01T04:52:53;45.96;;;43.91;;
66669;SDS011;53568;52.164;4.472;2023-03-01T04:55:19;45.27;;;43.44;;
66669;SDS011;53568;52.164;4.472;2023-03-01T04:57:44;45.17;;;43.52;;
66669;SDS011;53568;52.164;4.472;2023-03-01T05:00:11;45.45;;;43.76;;
66669;SDS011;53568;52.164;4.472;2023-03-01T05:02:54;45.54;;;43.72;;
66669;SDS011;53568;52.164;4.472;2023-03-01T05:05:23;44.64;;;43.03;;
66669;SDS011;53568;52.164;4.472;2023-03-01T05:07:57;44.53;;;42.76;;
66669;SDS011;53568;52.164;4.472;2023-03-01T05:10:26;45.54;;;43.72;;
66669;SDS011;53568;52.164;4.472;2023-03-01T05:12:54;46.55;;;44.75;;
66669;SDS011;53568;52.164;4.472;2023-03-01T05:15:22;45.86;;;44.21;;
66669;SDS011;53568;52.164;4.472;2023-03-01T05:17:52;47.82;;;45.80;;
66669;SDS011;53568;52.164;4.472;2023-03-01T05:20:20;47.11;;;45.05;;
66669;SDS011;53568;52.164;4.472;2023-03-01T05:22:52;46.34;;;44.32;;
66669;SDS011;53568;52.164;4.472;2023-03-01T05:25:21;47.12;;;45.29;;
66669;SDS011;53568;52.164;4.472;2023-03-01T05:27:47;46.32;;;44.40;;
66669;SDS011;53568;52.164;4.472;2023-03-01T05:30:13;46.76;;;44.93;;
66669;SDS011;53568;52.164;4.472;2023-03-01T05:32:40;45.47;;;44.16;;
66669;SDS011;53568;52.164;4.472;2023-03-01T05:35:08;46.33;;;44.29;;
66669;SDS011;53568;52.164;4.472;2023-03-01T05:37:39;44.84;;;43.10;;
66669;SDS011;53568;52.164;4.472;2023-03-01T05:40:09;44.11;;;42.48;;
66669;SDS011;53568;52.164;4.472;2023-03-01T05:42:47;43.52;;;41.84;;
66669;SDS011;53568;52.164;4.472;2023-03-01T05:45:18;43.31;;;41.75;;
66669;SDS011;53568;52.164;4.472;2023-03-01T05:47:45;42.68;;;41.15;;
66669;SDS011;53568;52.164;4.472;2023-03-01T05:50:19;41.94;;;40.74;;
66669;SDS011;53568;52.164;4.472;2023-03-01T05:52:52;41.22;;;39.81;;
66669;SDS011;53568;52.164;4.472;2023-03-01T05:55:23;41.68;;;40.24;;
66669;SDS011;53568;52.164;4.472;2023-03-01T05:57:49;40.74;;;39.19;;
66669;SDS011;53568;52.164;4.472;2023-03-01T06:00:18;38.84;;;37.52;;
66669;SDS011;53568;52.164;4.472;2023-03-01T06:02:47;37.01;;;36.22;;
66669;SDS011;53568;52.164;4.472;2023-03-01T06:05:12;36.23;;;35.26;;
66669;SDS011;53568;52.164;4.472;2023-03-01T06:07:38;37.85;;;36.87;;
66669;SDS011;53568;52.164;4.472;2023-03-01T06:10:05;36.60;;;35.50;;
66669;SDS011;53568;52.164;4.472;2023-03-01T06:12:32;35.92;;;34.75;;
66669;SDS011;53568;52.164;4.472;2023-03-01T06:14:59;36.94;;;36.13;;
66669;SDS011;53568;52.164;4.472;2023-03-01T06:17:26;39.38;;;38.26;;
66669;SDS011;53568;52.164;4.472;2023-03-01T06:19:55;38.32;;;37.01;;
66669;SDS011;53568;52.164;4.472;2023-03-01T06:22:20;37.07;;;35.89;;
66669;SDS011;53568;52.164;4.472;2023-03-01T06:24:46;33.88;;;33.12;;
66669;SDS011;53568;52.164;4.472;2023-03-01T06:27:11;32.99;;;31.97;;
66669;SDS011;53568;52.164;4.472;2023-03-01T06:29:37;33.07;;;31.90;;
66669;SDS011;53568;52.164;4.472;2023-03-01T06:32:02;30.30;;;29.59;;
66669;SDS011;53568;52.164;4.472;2023-03-01T06:34:29;30.28;;;29.66;;
66669;SDS011;53568;52.164;4.472;2023-03-01T06:36:54;32.83;;;31.92;;
66669;SDS011;53568;52.164;4.472;2023-03-01T06:39:20;33.87;;;33.15;;
66669;SDS011;53568;52.164;4.472;2023-03-01T06:41:45;34.69;;;33.58;;
66669;SDS011;53568;52.164;4.472;2023-03-01T06:44:11;34.64;;;33.69;;
66669;SDS011;53568;52.164;4.472;2023-03-01T06:46:37;35.31;;;34.11;;
66669;SDS011;53568;52.164;4.472;2023-03-01T06:49:03;35.14;;;34.00;;
66669;SDS011;53568;52.164;4.472;2023-03-01T06:51:32;33.88;;;32.86;;
66669;SDS011;53568;52.164;4.472;2023-03-01T06:53:58;34.77;;;33.66;;
66669;SDS011;53568;52.164;4.472;2023-03-01T06:56:23;35.54;;;34.53;;
66669;SDS011;53568;52.164;4.472;2023-03-01T06:58:49;35.40;;;34.38;;
66669;SDS011;53568;52.164;4.472;2023-03-01T07:01:14;34.86;;;33.75;;
66669;SDS011;53568;52.164;4.472;2023-03-01T07:03:40;35.23;;;33.88;;
66669;SDS011;53568;52.164;4.472;2023-03-01T07:06:05;35.86;;;34.67;;
66669;SDS011;53568;52.164;4.472;2023-03-01T07:08:31;36.53;;;35.03;;
66669;SDS011;53568;52.164;4.472;2023-03-01T07:10:57;36.45;;;35.12;;
66669;SDS011;53568;52.164;4.472;2023-03-01T07:13:23;35.07;;;34.01;;
66669;SDS011;53568;52.164;4.472;2023-03-01T07:15:49;34.89;;;33.66;;
66669;SDS011;53568;52.164;4.472;2023-03-01T07:18:15;35.60;;;34.64;;
66669;SDS011;53568;52.164;4.472;2023-03-01T07:20:40;37.81;;;36.43;;
66669;SDS011;53568;52.164;4.472;2023-03-01T07:23:06;36.85;;;35.61;;
66669;SDS011;53568;52.164;4.472;2023-03-01T07:25:32;38.02;;;36.83;;
66669;SDS011;53568;52.164;4.472;2023-03-01T07:27:58;37.16;;;35.82;;
66669;SDS011;53568;52.164;4.472;2023-03-01T07:30:24;37.69;;;36.49;;
66669;SDS011;53568;52.164;4.472;2023-03-01T07:32:52;38.00;;;36.78;;
66669;SDS011;53568;52.164;4.472;2023-03-01T07:35:19;37.03;;;36.13;;
66669;SDS011;53568;52.164;4.472;2023-03-01T07:37:45;37.43;;;36.14;;
66669;SDS011;53568;52.164;4.472;2023-03-01T07:40:11;37.84;;;36.86;;
66669;SDS011;53568;52.164;4.472;2023-03-01T07:42:37;39.16;;;37.66;;
66669;SDS011;53568;52.164;4.472;2023-03-01T07:45:04;39.50;;;37.87;;
66669;SDS011;53568;52.164;4.472;2023-03-01T07:47:30;40.03;;;38.44;;
66669;SDS011;53568;52.164;4.472;2023-03-01T07:49:56;39.03;;;37.92;;
66669;SDS011;53568;52.164;4.472;2023-03-01T07:52:22;40.86;;;39.08;;
66669;SDS011;53568;52.164;4.472;2023-03-01T07:54:47;41.74;;;39.68;;
66669;SDS011;53568;52.164;4.472;2023-03-01T07:57:13;42.52;;;40.74;;
66669;SDS011;53568;52.164;4.472;2023-03-01T07:59:38;43.48;;;41.79;;
66669;SDS011;53568;52.164;4.472;2023-03-01T08:02:04;45.42;;;43.40;;
66669;SDS011;53568;52.164;4.472;2023-03-01T08:04:30;44.70;;;42.65;;
66669;SDS011;53568;52.164;4.472;2023-03-01T08:06:56;43.85;;;42.02;;
66669;SDS011;53568;52.164;4.472;2023-03-01T08:09:22;45.22;;;42.73;;
66669;SDS011;53568;52.164;4.472;2023-03-01T08:11:47;43.43;;;41.56;;
66669;SDS011;53568;52.164;4.472;2023-03-01T08:14:13;43.32;;;41.32;;
66669;SDS011;53568;52.164;4.472;2023-03-01T08:16:38;43.79;;;41.50;;
66669;SDS011;53568;52.164;4.472;2023-03-01T08:19:05;42.88;;;41.15;;
66669;SDS011;53568;52.164;4.472;2023-03-01T08:21:31;43.88;;;42.07;;
66669;SDS011;53568;52.164;4.472;2023-03-01T08:24:00;43.63;;;41.65;;
66669;SDS011;53568;52.164;4.472;2023-03-01T08:26:30;41.89;;;40.07;;
66669;SDS011;53568;52.164;4.472;2023-03-01T08:28:57;40.57;;;38.84;;
66669;SDS011;53568;52.164;4.472;2023-03-01T08:31:30;40.58;;;39.06;;
66669;SDS011;53568;52.164;4.472;2023-03-01T08:34:01;41.14;;;39.57;;
66669;SDS011;53568;52.164;4.472;2023-03-01T08:36:31;41.90;;;39.98;;
66669;SDS011;53568;52.164;4.472;2023-03-01T08:38:59;42.95;;;41.15;;
66669;SDS011;53568;52.164;4.472;2023-03-01T08:41:25;44.41;;;42.53;;
66669;SDS011;53568;52.164;4.472;2023-03-01T08:43:51;43.64;;;42.06;;
66669;SDS011;53568;52.164;4.472;2023-03-01T08:46:17;44.14;;;42.42;;
66669;SDS011;53568;52.164;4.472;2023-03-01T08:48:43;45.45;;;43.13;;
66669;SDS011;53568;52.164;4.472;2023-03-01T08:51:10;45.78;;;43.61;;
66669;SDS011;53568;52.164;4.472;2023-03-01T08:53:40;44.89;;;42.84;;
66669;SDS011;53568;52.164;4.472;2023-03-01T08:56:06;43.97;;;42.31;;
66669;SDS011;53568;52.164;4.472;2023-03-01T08:58:33;43.54;;;41.53;;
66669;SDS011;53568;52.164;4.472;2023-03-01T09:00:59;44.35;;;42.43;;
66669;SDS011;53568;52.164;4.472;2023-03-01T09:03:25;45.12;;;43.12;;
66669;SDS011;53568;52.164;4.472;2023-03-01T09:05:51;43.80;;;41.99;;
66669;SDS011;53568;52.164;4.472;2023-03-01T09:08:18;45.49;;;43.12;;
66669;SDS011;53568;52.164;4.472;2023-03-01T09:10:44;43.12;;;41.64;;
66669;SDS011;53568;52.164;4.472;2023-03-01T09:13:10;41.82;;;40.24;;
66669;SDS011;53568;52.164;4.472;2023-03-01T09:15:37;42.79;;;40.91;;
66669;SDS011;53568;52.164;4.472;2023-03-01T09:18:05;41.81;;;40.10;;
66669;SDS011;53568;52.164;4.472;2023-03-01T09:20:31;41.06;;;39.43;;
66669;SDS011;53568;52.164;4.472;2023-03-01T09:22:57;41.16;;;39.46;;
66669;SDS011;53568;52.164;4.472;2023-03-01T09:25:23;39.99;;;38.74;;
66669;SDS011;53568;52.164;4.472;2023-03-01T09:27:52;40.10;;;38.31;;
66669;SDS011;53568;52.164;4.472;2023-03-01T09:30:19;40.05;;;38.63;;
66669;SDS011;53568;52.164;4.472;2023-03-01T09:32:45;40.67;;;39.02;;
66669;SDS011;53568;52.164;4.472;2023-03-01T09:35:11;40.20;;;38.69;;
66669;SDS011;53568;52.164;4.472;2023-03-01T09:37:37;39.78;;;38.21;;
66669;SDS011;53568;52.164;4.472;2023-03-01T09:40:06;40.37;;;38.87;;
66669;SDS011;53568;52.164;4.472;2023-03-01T09:42:45;40.42;;;38.97;;
66669;SDS011;53568;52.164;4.472;2023-03-01T09:45:20;41.50;;;39.87;;
66669;SDS011;53568;52.164;4.472;2023-03-01T09:47:52;41.23;;;39.75;;
66669;SDS011;53568;52.164;4.472;2023-03-01T09:50:20;41.29;;;39.53;;
66669;SDS011;53568;52.164;4.472;2023-03-01T09:55:15;42.82;;;41.04;;
66669;SDS011;53568;52.164;4.472;2023-03-01T09:58:00;41.62;;;39.78;;
66669;SDS011;53568;52.164;4.472;2023-03-01T10:00:42;41.87;;;40.20;;
66669;SDS011;53568;52.164;4.472;2023-03-01T10:06:01;41.14;;;39.48;;
66669;SDS011;53568;52.164;4.472;2023-03-01T10:08:42;40.54;;;38.94;;
66669;SDS011;53568;52.164;4.472;2023-03-01T10:11:38;42.03;;;40.20;;
66669;SDS011;53568;52.164;4.472;2023-03-01T10:16:48;42.18;;;40.27;;
66669;SDS011;53568;52.164;4.472;2023-03-01T10:19:24;42.28;;;40.30;;
66669;SDS011;53568;52.164;4.472;2023-03-01T10:21:57;40.47;;;38.61;;
66669;SDS011;53568;52.164;4.472;2023-03-01T10:24:34;40.52;;;38.79;;
66669;SDS011;53568;52.164;4.472;2023-03-01T10:27:04;41.05;;;39.19;;
66669;SDS011;53568;52.164;4.472;2023-03-01T10:29:47;41.03;;;39.38;;
66669;SDS011;53568;52.164;4.472;2023-03-01T10:32:16;42.21;;;40.20;;
66669;SDS011;53568;52.164;4.472;2023-03-01T10:34:43;39.83;;;38.25;;
66669;SDS011;53568;52.164;4.472;2023-03-01T10:37:13;35.93;;;34.19;;
66669;SDS011;53568;52.164;4.472;2023-03-01T10:40:03;32.18;;;31.09;;
66669;SDS011;53568;52.164;4.472;2023-03-01T10:42:35;32.57;;;31.65;;
66669;SDS011;53568;52.164;4.472;2023-03-01T10:45:14;29.26;;;28.20;;
66669;SDS011;53568;52.164;4.472;2023-03-01T10:48:10;27.99;;;27.16;;
66669;SDS011;53568;52.164;4.472;2023-03-01T10:50:38;30.13;;;29.07;;
66669;SDS011;53568;52.164;4.472;2023-03-01T10:53:08;33.90;;;32.49;;
66669;SDS011;53568;52.164;4.472;2023-03-01T10:55:56;31.19;;;30.14;;
66669;SDS011;53568;52.164;4.472;2023-03-01T10:58:24;30.15;;;29.11;;
66669;SDS011;53568;52.164;4.472;2023-03-01T11:01:00;29.15;;;27.96;;
66669;SDS011;53568;52.164;4.472;2023-03-01T11:03:29;31.18;;;30.12;;
66669;SDS011;53568;52.164;4.472;2023-03-01T11:08:42;35.13;;;33.90;;
66669;SDS011;53568;52.164;4.472;2023-03-01T11:13:39;32.35;;;31.37;;
66669;SDS011;53568;52.164;4.472;2023-03-01T11:16:38;29.68;;;28.59;;
66669;SDS011;53568;52.164;4.472;2023-03-01T11:21:35;29.79;;;28.91;;
66669;SDS011;53568;52.164;4.472;2023-03-01T11:24:08;29.51;;;28.63;;
66669;SDS011;53568;52.164;4.472;2023-03-01T11:26:42;29.27;;;28.20;;
66669;SDS011;53568;52.164;4.472;2023-03-01T11:29:16;30.46;;;29.53;;
66669;SDS011;53568;52.164;4.472;2023-03-01T11:31:51;31.46;;;30.47;;
66669;SDS011;53568;52.164;4.472;2023-03-01T11:34:23;30.23;;;29.25;;
66669;SDS011;53568;52.164;4.472;2023-03-01T11:37:09;29.31;;;28.39;;
66669;SDS011;53568;52.164;4.472;2023-03-01T11:40:05;26.85;;;26.08;;
66669;SDS011;53568;52.164;4.472;2023-03-01T11:42:53;28.35;;;27.41;;
66669;SDS011;53568;52.164;4.472;2023-03-01T11:45:30;27.87;;;27.12;;
66669;SDS011;53568;52.164;4.472;2023-03-01T11:50:50;27.46;;;26.76;;
66669;SDS011;53568;52.164;4.472;2023-03-01T12:12:22;14.83;;;14.69;;
66669;SDS011;53568;52.164;4.472;2023-03-01T12:20:29;16.58;;;16.31;;
66669;SDS011;53568;52.164;4.472;2023-03-01T12:51:07;23.79;;;23.07;;
66669;SDS011;53568;52.164;4.472;2023-03-01T12:53:48;23.60;;;22.90;;
66669;SDS011;53568;52.164;4.472;2023-03-01T12:56:17;22.75;;;22.12;;
66669;SDS011;53568;52.164;4.472;2023-03-01T12:59:08;23.02;;;22.44;;
66669;SDS011;53568;52.164;4.472;2023-03-01T13:04:49;22.20;;;21.76;;
66669;SDS011;53568;52.164;4.472;2023-03-01T13:07:30;21.56;;;21.02;;
66669;SDS011;53568;52.164;4.472;2023-03-01T13:10:30;21.40;;;20.95;;
66669;SDS011;53568;52.164;4.472;2023-03-01T13:13:11;22.07;;;21.39;;
66669;SDS011;53568;52.164;4.472;2023-03-01T13:15:39;21.22;;;20.69;;
66669;SDS011;53568;52.164;4.472;2023-03-01T13:23:24;21.46;;;20.93;;
66669;SDS011;53568;52.164;4.472;2023-03-01T13:33:55;20.78;;;20.16;;
66669;SDS011;53568;52.164;4.472;2023-03-01T13:38:55;20.53;;;19.89;;
66669;SDS011;53568;52.164;4.472;2023-03-01T13:54:55;19.11;;;18.40;;
66669;SDS011;53568;52.164;4.472;2023-03-01T13:57:22;18.73;;;18.38;;
66669;SDS011;53568;52.164;4.472;2023-03-01T13:59:53;18.52;;;18.00;;
66669;SDS011;53568;52.164;4.472;2023-03-01T14:02:19;18.61;;;17.98;;
66669;SDS011;53568;52.164;4.472;2023-03-01T14:04:46;18.77;;;18.12;;
66669;SDS011;53568;52.164;4.472;2023-03-01T14:07:25;18.09;;;17.62;;
66669;SDS011;53568;52.164;4.472;2023-03-01T14:09:59;18.18;;;17.80;;
66669;SDS011;53568;52.164;4.472;2023-03-01T14:15:39;18.84;;;18.34;;
66669;SDS011;53568;52.164;4.472;2023-03-01T14:18:36;16.68;;;16.46;;
66669;SDS011;53568;52.164;4.472;2023-03-01T14:21:17;16.67;;;16.20;;
66669;SDS011;53568;52.164;4.472;2023-03-01T14:23:42;17.20;;;16.88;;
66669;SDS011;53568;52.164;4.472;2023-03-01T14:26:09;17.04;;;16.70;;
66669;SDS011;53568;52.164;4.472;2023-03-01T14:28:37;17.07;;;16.68;;
66669;SDS011;53568;52.164;4.472;2023-03-01T14:31:29;16.22;;;15.99;;
66669;SDS011;53568;52.164;4.472;2023-03-01T14:34:02;15.79;;;15.57;;
66669;SDS011;53568;52.164;4.472;2023-03-01T14:36:31;15.77;;;15.52;;
66669;SDS011;53568;52.164;4.472;2023-03-01T14:38:59;16.30;;;15.87;;
66669;SDS011;53568;52.164;4.472;2023-03-01T14:41:31;15.32;;;15.04;;
66669;SDS011;53568;52.164;4.472;2023-03-01T14:44:01;15.26;;;15.05;;
66669;SDS011;53568;52.164;4.472;2023-03-01T14:46:34;15.21;;;14.86;;
66669;SDS011;53568;52.164;4.472;2023-03-01T14:49:12;14.92;;;14.67;;
66669;SDS011;53568;52.164;4.472;2023-03-01T14:51:41;16.29;;;15.81;;
66669;SDS011;53568;52.164;4.472;2023-03-01T14:54:21;15.10;;;14.99;;
66669;SDS011;53568;52.164;4.472;2023-03-01T14:57:12;14.93;;;14.85;;
66669;SDS011;53568;52.164;4.472;2023-03-01T14:59:41;16.15;;;15.78;;
66669;SDS011;53568;52.164;4.472;2023-03-01T15:02:11;15.40;;;15.11;;
66669;SDS011;53568;52.164;4.472;2023-03-01T15:04:49;16.15;;;15.76;;
66669;SDS011;53568;52.164;4.472;2023-03-01T15:07:27;16.03;;;15.74;;
66669;SDS011;53568;52.164;4.472;2023-03-01T15:09:57;16.05;;;15.79;;
66669;SDS011;53568;52.164;4.472;2023-03-01T15:12:44;16.09;;;15.71;;
66669;SDS011;53568;52.164;4.472;2023-03-01T15:17:57;15.97;;;15.78;;
66669;SDS011;53568;52.164;4.472;2023-03-01T15:20:26;15.31;;;15.07;;
66669;SDS011;53568;52.164;4.472;2023-03-01T15:22:55;14.94;;;14.63;;
66669;SDS011;53568;52.164;4.472;2023-03-01T15:25:26;14.27;;;14.06;;
66669;SDS011;53568;52.164;4.472;2023-03-01T15:27:55;14.52;;;14.32;;
66669;SDS011;53568;52.164;4.472;2023-03-01T15:30:27;13.81;;;13.78;;
66669;SDS011;53568;52.164;4.472;2023-03-01T15:33:18;13.00;;;12.89;;
66669;SDS011;53568;52.164;4.472;2023-03-01T15:35:49;12.46;;;12.31;;
66669;SDS011;53568;52.164;4.472;2023-03-01T15:43:48;13.64;;;13.59;;
66669;SDS011;53568;52.164;4.472;2023-03-01T15:46:31;14.45;;;14.33;;
66669;SDS011;53568;52.164;4.472;2023-03-01T15:49:00;15.50;;;15.35;;
66669;SDS011;53568;52.164;4.472;2023-03-01T15:51:30;14.97;;;14.80;;
66669;SDS011;53568;52.164;4.472;2023-03-01T15:54:04;15.55;;;15.21;;
66669;SDS011;53568;52.164;4.472;2023-03-01T15:56:43;15.81;;;15.28;;
66669;SDS011;53568;52.164;4.472;2023-03-01T15:59:09;15.30;;;15.01;;
66669;SDS011;53568;52.164;4.472;2023-03-01T16:01:38;15.05;;;14.89;;
66669;SDS011;53568;52.164;4.472;2023-03-01T16:04:04;14.81;;;14.71;;
66669;SDS011;53568;52.164;4.472;2023-03-01T16:06:29;15.00;;;14.75;;
66669;SDS011;53568;52.164;4.472;2023-03-01T16:08:55;14.62;;;14.37;;
66669;SDS011;53568;52.164;4.472;2023-03-01T16:11:20;14.09;;;13.80;;
66669;SDS011;53568;52.164;4.472;2023-03-01T16:13:46;13.73;;;13.56;;
66669;SDS011;53568;52.164;4.472;2023-03-01T16:16:12;14.78;;;14.42;;
66669;SDS011;53568;52.164;4.472;2023-03-01T16:18:45;15.89;;;15.64;;
66669;SDS011;53568;52.164;4.472;2023-03-01T16:21:21;13.97;;;13.81;;
66669;SDS011;53568;52.164;4.472;2023-03-01T16:23:49;13.60;;;13.37;;
66669;SDS011;53568;52.164;4.472;2023-03-01T16:26:16;13.75;;;13.47;;
66669;SDS011;53568;52.164;4.472;2023-03-01T16:28:43;14.35;;;13.96;;
66669;SDS011;53568;52.164;4.472;2023-03-01T16:31:10;13.72;;;13.62;;
66669;SDS011;53568;52.164;4.472;2023-03-01T16:33:36;13.48;;;13.34;;
66669;SDS011;53568;52.164;4.472;2023-03-01T16:36:09;13.58;;;13.40;;
66669;SDS011;53568;52.164;4.472;2023-03-01T16:38:37;13.73;;;13.57;;